createdAt,value
2023-05-06T00:00:55.107Z,19.43
2023-05-06T00:02:56.777Z,19.42
2023-05-06T00:04:58.532Z,19.43
2023-05-06T00:07:00.219Z,19.44
2023-05-06T00:09:02.055Z,19.41
2023-05-06T00:11:05.099Z,19.40
2023-05-06T00:13:06.742Z,19.40
2023-05-06T00:15:09.352Z,19.36
2023-05-06T00:17:11.404Z,19.33
2023-05-06T00:19:13.672Z,19.30
2023-05-06T00:21:15.514Z,19.27
2023-05-06T00:23:17.127Z,19.26
2023-05-06T00:25:19.370Z,19.26
2023-05-06T00:27:22.418Z,19.29
2023-05-06T00:29:24.059Z,19.29
2023-05-06T00:31:25.627Z,19.32
2023-05-06T00:33:27.280Z,19.25
2023-05-06T00:35:28.998Z,19.22
2023-05-06T00:37:30.707Z,19.22
2023-05-06T00:39:32.427Z,19.17
2023-05-06T00:41:34.318Z,19.15
2023-05-06T00:43:37.374Z,19.14
2023-05-06T00:45:39.234Z,19.14
2023-05-06T00:47:42.331Z,19.09
2023-05-06T00:49:45.285Z,19.05
2023-05-06T00:51:47.352Z,19.04
2023-05-06T00:53:49.645Z,19.07
2023-05-06T00:55:51.268Z,19.02
2023-05-06T00:57:53.283Z,19.02
2023-05-06T00:59:56.331Z,19.03
2023-05-06T01:01:58.279Z,19.03
2023-05-06T01:04:00.054Z,19.01
2023-05-06T01:06:11.787Z,19.02
2023-05-06T01:08:21.407Z,19.02
2023-05-06T01:10:31.451Z,19.01
2023-05-06T01:12:41.330Z,18.99
2023-05-06T01:14:49.910Z,19.01
2023-05-06T01:16:58.108Z,19.00
2023-05-06T01:19:00.463Z,18.93
2023-05-06T01:21:05.257Z,18.91
2023-05-06T01:23:11.433Z,18.91
2023-05-06T01:25:18.337Z,18.94
2023-05-06T01:27:20.291Z,18.96
2023-05-06T01:29:22.099Z,18.92
2023-05-06T01:31:32.161Z,18.93
2023-05-06T01:33:41.194Z,18.88
2023-05-06T01:35:53.928Z,18.91
2023-05-06T01:38:03.915Z,18.94
2023-05-06T01:40:09.145Z,18.94
2023-05-06T01:42:13.927Z,18.88
2023-05-06T01:44:16.077Z,18.85
2023-05-06T01:46:19.965Z,18.82
2023-05-06T01:48:23.611Z,18.79
2023-05-06T01:50:25.793Z,18.78
2023-05-06T01:52:28.660Z,18.75
2023-05-06T01:54:30.594Z,18.72
2023-05-06T01:56:33.628Z,18.73
2023-05-06T01:58:35.504Z,18.69
2023-05-06T02:00:37.971Z,18.68
2023-05-06T02:02:39.746Z,18.68
2023-05-06T02:04:41.409Z,18.71
2023-05-06T02:06:43.125Z,18.74
2023-05-06T02:08:44.792Z,18.72
2023-05-06T02:10:47.946Z,18.72
2023-05-06T02:12:51.319Z,18.72
2023-05-06T02:14:53.426Z,18.68
2023-05-06T02:16:55.306Z,18.66
2023-05-06T02:18:56.948Z,18.62
2023-05-06T02:20:58.586Z,18.58
2023-05-06T02:23:00.248Z,18.55
2023-05-06T02:25:01.862Z,18.57
2023-05-06T02:27:03.826Z,18.58
2023-05-06T02:29:06.883Z,18.57
2023-05-06T02:31:13.127Z,18.52
2023-05-06T02:33:14.833Z,18.53
2023-05-06T02:35:16.481Z,18.47
2023-05-06T02:37:18.144Z,18.43
2023-05-06T02:39:19.704Z,18.42
2023-05-06T02:41:21.299Z,18.38
2023-05-06T02:43:24.437Z,18.37
2023-05-06T02:45:27.645Z,18.35
2023-05-06T02:47:29.380Z,18.35
2023-05-06T02:49:30.976Z,18.37
2023-05-06T02:51:32.510Z,18.37
2023-05-06T02:53:34.137Z,18.33
2023-05-06T02:55:35.871Z,18.32
2023-05-06T02:57:37.528Z,18.33
2023-05-06T02:59:39.150Z,18.32
2023-05-06T03:01:42.277Z,18.37
2023-05-06T03:03:44.152Z,18.32
2023-05-06T03:05:46.020Z,18.28
2023-05-06T03:07:47.787Z,18.25
2023-05-06T03:09:49.493Z,18.22
2023-05-06T03:11:51.442Z,18.22
2023-05-06T03:13:53.000Z,18.18
2023-05-06T03:15:56.024Z,18.12
2023-05-06T03:17:59.003Z,18.09
2023-05-06T03:20:00.615Z,18.05
2023-05-06T03:22:02.831Z,18.04
2023-05-06T03:24:05.506Z,18.00
2023-05-06T03:26:07.213Z,17.98
2023-05-06T03:28:10.832Z,17.91
2023-05-06T03:30:13.287Z,17.95
2023-05-06T03:32:15.059Z,17.95
2023-05-06T03:34:17.971Z,17.93
2023-05-06T03:36:19.646Z,17.91
2023-05-06T03:38:21.369Z,17.91
2023-05-06T03:40:23.029Z,17.88
2023-05-06T03:42:24.862Z,17.87
2023-05-06T03:44:26.732Z,17.86
2023-05-06T03:46:28.372Z,17.92
2023-05-06T03:48:29.992Z,17.88
2023-05-06T03:50:33.170Z,17.83
2023-05-06T03:52:34.840Z,17.85
2023-05-06T03:54:36.432Z,17.87
2023-05-06T03:56:38.014Z,17.86
2023-05-06T03:58:39.618Z,17.82
2023-05-06T04:00:41.231Z,17.81
2023-05-06T04:02:43.028Z,17.85
2023-05-06T04:04:44.657Z,17.90
2023-05-06T04:06:47.599Z,17.92
2023-05-06T04:08:49.377Z,17.90
2023-05-06T04:10:51.218Z,17.95
2023-05-06T04:12:55.111Z,17.86
2023-05-06T04:14:56.681Z,17.82
2023-05-06T04:16:58.334Z,17.83
2023-05-06T04:18:59.910Z,17.80
2023-05-06T04:21:01.591Z,17.83
2023-05-06T04:23:04.513Z,17.81
2023-05-06T04:25:08.688Z,17.77
2023-05-06T04:27:11.464Z,17.82
2023-05-06T04:29:13.026Z,17.84
2023-05-06T04:31:14.661Z,17.83
2023-05-06T04:33:16.924Z,17.74
2023-05-06T04:35:18.773Z,17.75
2023-05-06T04:37:20.366Z,17.73
2023-05-06T04:39:25.945Z,17.73
2023-05-06T04:41:27.499Z,17.71
2023-05-06T04:43:29.556Z,17.70
2023-05-06T04:45:31.207Z,17.67
2023-05-06T04:47:33.867Z,17.68
2023-05-06T04:49:35.869Z,17.64
2023-05-06T04:51:37.492Z,17.66
2023-05-06T04:53:41.528Z,17.66
2023-05-06T04:55:44.574Z,17.66
2023-05-06T04:57:46.391Z,17.63
2023-05-06T04:59:47.990Z,17.59
2023-05-06T05:01:49.621Z,17.55
2023-05-06T05:03:51.280Z,17.54
2023-05-06T05:05:54.052Z,17.55
2023-05-06T05:07:56.097Z,17.53
2023-05-06T05:09:57.810Z,17.51
2023-05-06T05:12:01.237Z,17.55
2023-05-06T05:14:02.804Z,17.55
2023-05-06T05:16:05.174Z,17.51
2023-05-06T05:18:07.097Z,17.53
2023-05-06T05:20:09.541Z,17.54
2023-05-06T05:22:11.461Z,17.54
2023-05-06T05:24:13.038Z,17.53
2023-05-06T05:26:14.612Z,17.53
2023-05-06T05:28:17.566Z,17.51
2023-05-06T05:30:19.535Z,17.53
2023-05-06T05:32:21.126Z,17.52
2023-05-06T05:34:22.815Z,17.55
2023-05-06T05:36:24.546Z,17.66
2023-05-06T05:38:26.507Z,17.71
2023-05-06T05:40:28.408Z,17.62
2023-05-06T05:42:30.137Z,17.61
2023-05-06T05:44:33.037Z,17.65
2023-05-06T05:46:34.917Z,17.65
2023-05-06T05:48:36.531Z,17.65
2023-05-06T05:50:38.079Z,17.69
2023-05-06T05:52:39.687Z,17.69
2023-05-06T05:54:41.278Z,17.77
2023-05-06T05:56:42.901Z,17.85
2023-05-06T05:58:44.554Z,17.82
2023-05-06T06:00:47.662Z,17.81
2023-05-06T06:02:49.384Z,17.81
2023-05-06T06:04:51.028Z,17.87
2023-05-06T06:06:52.727Z,17.87
2023-05-06T06:08:54.559Z,17.89
2023-05-06T06:10:56.153Z,17.95
2023-05-06T06:12:57.796Z,18.03
2023-05-06T06:14:59.487Z,18.09
2023-05-06T06:17:02.652Z,18.17
2023-05-06T06:19:04.269Z,18.17
2023-05-06T06:21:05.902Z,18.20
2023-05-06T06:23:07.513Z,18.21
2023-05-06T06:25:10.121Z,18.26
2023-05-06T06:27:11.937Z,18.35
2023-05-06T06:29:13.766Z,18.47
2023-05-06T06:31:15.391Z,18.47
2023-05-06T06:33:18.359Z,18.51
2023-05-06T06:35:20.259Z,18.63
2023-05-06T06:37:21.837Z,18.68
2023-05-06T06:39:23.428Z,18.77
2023-05-06T06:41:26.525Z,18.87
2023-05-06T06:43:28.388Z,18.92
2023-05-06T06:45:30.059Z,19.00
2023-05-06T06:47:31.710Z,19.17
2023-05-06T06:49:34.695Z,19.25
2023-05-06T06:51:36.408Z,19.25
2023-05-06T06:53:38.150Z,19.29
2023-05-06T06:55:43.263Z,19.35
2023-05-06T06:57:44.813Z,19.37
2023-05-06T06:59:46.377Z,19.41
2023-05-06T07:01:51.706Z,19.42
2023-05-06T07:03:53.646Z,19.46
2023-05-06T07:05:56.637Z,19.46
2023-05-06T07:07:58.308Z,19.52
2023-05-06T07:09:59.891Z,19.63
2023-05-06T07:12:01.546Z,19.70
2023-05-06T07:14:03.242Z,19.72
2023-05-06T07:16:05.168Z,19.71
2023-05-06T07:18:06.843Z,19.80
2023-05-06T07:20:09.783Z,19.88
2023-05-06T07:22:12.740Z,19.97
2023-05-06T07:24:14.494Z,20.03
2023-05-06T07:26:16.060Z,20.08
2023-05-06T07:28:17.669Z,20.11
2023-05-06T07:30:20.923Z,20.06
2023-05-06T07:32:24.016Z,20.19
2023-05-06T07:34:25.632Z,20.24
2023-05-06T07:36:27.336Z,20.31
2023-05-06T07:38:31.050Z,20.38
2023-05-06T07:40:33.166Z,20.44
2023-05-06T07:42:34.750Z,20.54
2023-05-06T07:44:36.565Z,20.52
2023-05-06T07:46:38.538Z,20.52
2023-05-06T07:48:40.426Z,20.57
2023-05-06T07:50:42.102Z,20.64
2023-05-06T07:52:43.693Z,20.67
2023-05-06T07:54:46.918Z,20.70
2023-05-06T07:56:48.588Z,20.70
2023-05-06T07:58:50.183Z,20.72
2023-05-06T08:02:53.635Z,20.87
2023-05-06T08:04:55.562Z,20.93
2023-05-06T08:06:57.348Z,20.90
2023-05-06T08:08:59.080Z,20.93
2023-05-06T08:11:02.021Z,20.91
2023-05-06T08:13:03.637Z,20.97
2023-05-06T08:15:06.287Z,21.05
2023-05-06T08:17:08.233Z,21.08
2023-05-06T08:19:09.865Z,21.07
2023-05-06T08:21:11.446Z,21.13
2023-05-06T08:23:13.267Z,21.20
2023-05-06T08:25:15.294Z,21.26
2023-05-06T08:27:18.269Z,21.30
2023-05-06T08:29:19.908Z,21.28
2023-05-06T08:31:21.576Z,21.32
2023-05-06T08:33:23.198Z,21.34
2023-05-06T08:35:24.826Z,21.37
2023-05-06T08:37:26.576Z,21.43
2023-05-06T08:39:28.214Z,21.46
2023-05-06T08:41:31.239Z,21.49
2023-05-06T08:43:40.212Z,21.51
2023-05-06T08:45:42.241Z,21.56
2023-05-06T08:47:44.387Z,21.67
2023-05-06T08:49:46.069Z,21.69
2023-05-06T08:51:50.916Z,21.72
2023-05-06T08:53:54.783Z,21.80
2023-05-06T08:55:57.935Z,21.85
2023-05-06T08:58:00.135Z,21.92
2023-05-06T09:00:03.642Z,21.90
2023-05-06T09:02:06.949Z,21.88
2023-05-06T09:04:10.135Z,21.81
2023-05-06T09:06:11.763Z,21.81
2023-05-06T09:08:13.568Z,21.85
2023-05-06T09:10:15.498Z,21.86
2023-05-06T09:12:17.360Z,21.85
2023-05-06T09:14:18.971Z,21.94
2023-05-06T09:16:29.456Z,21.98
2023-05-06T09:18:31.790Z,21.98
2023-05-06T09:20:33.508Z,22.08
2023-05-06T09:22:37.772Z,22.08
2023-05-06T09:24:39.510Z,22.08
2023-05-06T09:26:42.799Z,22.22
2023-05-06T09:28:45.978Z,22.34
2023-05-06T09:30:49.067Z,22.38
2023-05-06T09:32:52.677Z,22.40
2023-05-06T09:34:54.847Z,22.40
2023-05-06T09:36:56.398Z,22.39
2023-05-06T09:38:57.951Z,22.42
2023-05-06T09:40:59.554Z,22.50
2023-05-06T09:43:01.432Z,22.54
2023-05-06T09:45:03.190Z,22.60
2023-05-06T09:47:05.518Z,22.64
2023-05-06T09:49:08.528Z,22.72
2023-05-06T09:51:11.352Z,22.77
2023-05-06T09:53:14.295Z,22.84
2023-05-06T09:55:18.540Z,22.73
2023-05-06T09:57:21.656Z,22.84
2023-05-06T09:59:27.265Z,22.89
2023-05-06T10:01:36.911Z,22.96
2023-05-06T10:03:40.022Z,22.99
2023-05-06T10:05:43.563Z,23.07
2023-05-06T10:07:48.198Z,23.13
2023-05-06T10:09:50.380Z,23.38
2023-05-06T10:11:53.476Z,23.32
2023-05-06T10:13:55.328Z,23.42
2023-05-06T10:16:00.658Z,23.44
2023-05-06T10:18:02.818Z,23.49
2023-05-06T10:20:06.066Z,23.45
2023-05-06T10:22:17.109Z,23.46
2023-05-06T10:24:26.390Z,23.45
2023-05-06T10:26:29.979Z,23.52
2023-05-06T10:28:37.405Z,23.54
2023-05-06T10:30:41.308Z,23.60
2023-05-06T10:32:44.935Z,23.59
2023-05-06T10:34:53.557Z,23.60
2023-05-06T10:36:57.983Z,23.59
2023-05-06T10:39:01.034Z,23.54
2023-05-06T10:41:04.006Z,23.50
2023-05-06T10:43:23.780Z,23.48
2023-05-06T10:45:25.889Z,23.52
2023-05-06T10:47:27.663Z,23.55
2023-05-06T10:49:30.629Z,23.54
2023-05-06T10:51:32.981Z,23.62
2023-05-06T10:53:55.841Z,23.68
2023-05-06T10:56:07.244Z,23.69
2023-05-06T10:58:13.918Z,23.78
2023-05-06T11:00:16.390Z,23.93
2023-05-06T11:02:20.456Z,24.13
2023-05-06T11:04:22.989Z,24.19
2023-05-06T11:06:35.751Z,24.28
2023-05-06T11:08:38.350Z,24.28
2023-05-06T11:10:40.215Z,24.34
2023-05-06T11:12:48.127Z,24.36
2023-05-06T11:14:49.708Z,24.25
2023-05-06T11:16:52.723Z,24.28
2023-05-06T11:18:55.198Z,24.39
2023-05-06T11:21:39.519Z,24.47
2023-05-06T11:24:07.177Z,24.53
2023-05-06T11:26:09.653Z,24.55
2023-05-06T11:28:14.791Z,24.52
2023-05-06T11:30:16.493Z,24.50
2023-05-06T11:32:22.588Z,24.53
2023-05-06T11:34:26.990Z,24.54
2023-05-06T11:36:28.582Z,24.60
2023-05-06T11:38:43.864Z,24.58
2023-05-06T11:40:45.499Z,24.58
2023-05-06T11:42:47.407Z,24.57
2023-05-06T11:44:50.719Z,24.62
2023-05-06T11:46:55.772Z,24.72
2023-05-06T11:48:57.413Z,24.74
2023-05-06T11:50:58.967Z,24.74
2023-05-06T11:53:01.933Z,24.80
2023-05-06T11:55:08.200Z,24.88
2023-05-06T11:57:09.927Z,25.03
2023-05-06T11:59:11.575Z,25.12
2023-05-06T12:01:14.597Z,25.25
2023-05-06T12:03:16.441Z,25.32
2023-05-06T12:05:23.105Z,25.59
2023-05-06T12:07:25.192Z,25.85
2023-05-06T12:09:26.951Z,26.04
2023-05-06T12:11:28.669Z,26.06
2023-05-06T12:13:31.074Z,26.10
2023-05-06T12:15:34.758Z,26.16
2023-05-06T12:17:37.890Z,26.24
2023-05-06T12:19:39.585Z,26.30
2023-05-06T12:21:41.185Z,26.51
2023-05-06T12:23:50.803Z,26.83
2023-05-06T12:26:01.081Z,27.05
2023-05-06T12:28:13.495Z,27.12
2023-05-06T12:30:15.267Z,27.30
2023-05-06T12:32:16.955Z,27.39
2023-05-06T12:34:36.626Z,27.45
2023-05-06T12:36:42.767Z,27.53
2023-05-06T12:38:51.470Z,27.57
2023-05-06T12:40:54.330Z,27.72
2023-05-06T12:42:56.055Z,27.73
2023-05-06T12:44:57.788Z,28.05
2023-05-06T12:47:00.487Z,28.28
2023-05-06T12:49:03.394Z,28.60
2023-05-06T12:51:22.163Z,28.75
2023-05-06T12:53:34.652Z,28.45
2023-05-06T12:55:38.142Z,28.24
2023-05-06T12:57:39.812Z,28.48
2023-05-06T12:59:43.059Z,28.74
2023-05-06T13:01:44.766Z,28.96
2023-05-06T13:03:46.636Z,29.25
2023-05-06T13:05:48.371Z,29.36
2023-05-06T13:07:51.552Z,29.51
2023-05-06T13:09:53.382Z,29.75
2023-05-06T13:11:55.087Z,29.77
2023-05-06T13:13:59.298Z,29.90
2023-05-06T13:16:01.171Z,29.94
2023-05-06T13:18:02.878Z,29.84
2023-05-06T13:20:08.063Z,29.91
2023-05-06T13:22:09.817Z,29.93
2023-05-06T13:24:12.931Z,29.95
2023-05-06T13:26:15.070Z,29.91
2023-05-06T13:28:16.688Z,30.00
2023-05-06T13:30:18.254Z,30.01
2023-05-06T13:32:19.886Z,29.94
2023-05-06T13:34:21.534Z,29.67
2023-05-06T13:36:23.383Z,29.49
2023-05-06T13:38:24.998Z,29.35
2023-05-06T13:40:28.283Z,29.33
2023-05-06T13:42:29.824Z,29.17
2023-05-06T13:44:31.541Z,29.29
2023-05-06T13:46:33.646Z,29.22
2023-05-06T13:48:35.371Z,29.14
2023-05-06T13:50:37.050Z,29.11
2023-05-06T13:52:38.598Z,29.15
2023-05-06T13:54:40.236Z,28.99
2023-05-06T13:56:43.154Z,28.87
2023-05-06T13:58:45.015Z,28.67
2023-05-06T14:00:46.599Z,28.64
2023-05-06T14:02:48.276Z,28.63
2023-05-06T14:04:52.527Z,28.50
2023-05-06T14:06:54.169Z,28.33
2023-05-06T14:08:55.789Z,28.22
2023-05-06T14:10:57.480Z,28.11
2023-05-06T14:13:00.687Z,27.97
2023-05-06T14:15:02.357Z,27.94
2023-05-06T14:17:03.947Z,27.92
2023-05-06T14:19:05.603Z,27.84
2023-05-06T14:21:07.470Z,27.72
2023-05-06T14:23:09.132Z,27.56
2023-05-06T14:25:10.931Z,27.31
2023-05-06T14:27:12.804Z,27.17
2023-05-06T14:29:16.926Z,27.13
2023-05-06T14:31:18.580Z,27.07
2023-05-06T14:33:20.320Z,27.14
2023-05-06T14:35:22.182Z,27.10
2023-05-06T14:37:23.798Z,26.95
2023-05-06T14:39:25.578Z,26.97
2023-05-06T14:41:27.374Z,26.89
2023-05-06T14:43:29.025Z,26.91
2023-05-06T14:45:32.048Z,26.97
2023-05-06T14:47:33.794Z,27.00
2023-05-06T14:49:35.385Z,27.01
2023-05-06T14:51:37.008Z,26.90
2023-05-06T14:53:38.618Z,26.94
2023-05-06T14:55:40.434Z,26.87
2023-05-06T14:57:42.069Z,26.87
2023-05-06T14:59:43.712Z,26.77
2023-05-06T15:01:46.832Z,26.66
2023-05-06T15:03:48.517Z,26.53
2023-05-06T15:05:50.243Z,26.38
2023-05-06T15:07:52.068Z,26.42
2023-05-06T15:09:53.740Z,26.45
2023-05-06T15:11:55.338Z,26.40
2023-05-06T15:13:57.252Z,26.34
2023-05-06T15:15:58.985Z,26.31
2023-05-06T15:18:02.062Z,26.28
2023-05-06T15:20:04.510Z,26.23
2023-05-06T15:22:06.397Z,26.27
2023-05-06T15:24:08.419Z,26.30
2023-05-06T15:26:10.002Z,26.29
2023-05-06T15:28:11.610Z,26.31
2023-05-06T15:30:14.501Z,26.32
2023-05-06T15:32:16.088Z,26.33
2023-05-06T15:34:19.179Z,26.34
2023-05-06T15:36:20.860Z,26.30
2023-05-06T15:38:22.490Z,26.33
2023-05-06T15:40:24.445Z,26.27
2023-05-06T15:42:26.289Z,26.24
2023-05-06T15:44:27.963Z,26.24
2023-05-06T15:46:31.260Z,26.20
2023-05-06T15:48:33.056Z,26.10
2023-05-06T15:50:38.470Z,26.15
2023-05-06T15:52:40.247Z,26.17
2023-05-06T15:54:41.802Z,26.18
2023-05-06T15:56:43.498Z,26.14
2023-05-06T15:58:45.349Z,26.13
2023-05-06T16:00:47.189Z,26.13
2023-05-06T16:02:49.053Z,26.06
2023-05-06T16:04:51.169Z,26.04
2023-05-06T16:06:54.569Z,26.02
2023-05-06T16:08:56.218Z,25.98
2023-05-06T16:10:58.315Z,25.97
2023-05-06T16:12:59.905Z,25.94
2023-05-06T16:15:01.874Z,25.92
2023-05-06T16:17:03.570Z,25.82
2023-05-06T16:19:05.237Z,25.81
2023-05-06T16:21:07.208Z,25.77
2023-05-06T16:23:10.323Z,25.78
2023-05-06T16:25:11.985Z,25.83
2023-05-06T16:27:13.662Z,25.79
2023-05-06T16:29:15.239Z,25.69
2023-05-06T16:31:16.970Z,25.64
2023-05-06T16:33:18.523Z,25.55
2023-05-06T16:35:20.310Z,25.54
2023-05-06T16:37:21.913Z,25.54
2023-05-06T16:39:25.259Z,25.59
2023-05-06T16:41:26.758Z,25.54
2023-05-06T16:43:28.330Z,25.54
2023-05-06T16:45:29.877Z,25.54
2023-05-06T16:47:31.672Z,25.56
2023-05-06T16:49:33.354Z,25.61
2023-05-06T16:51:35.003Z,25.62
2023-05-06T16:53:36.591Z,25.61
2023-05-06T16:55:39.758Z,25.62
2023-05-06T16:57:41.474Z,25.63
2023-05-06T16:59:43.191Z,25.62
2023-05-06T17:01:45.104Z,25.62
2023-05-06T17:03:46.680Z,25.61
2023-05-06T17:05:48.639Z,25.61
2023-05-06T17:07:51.094Z,25.65
2023-05-06T17:09:55.144Z,25.63
2023-05-06T17:11:58.128Z,25.58
2023-05-06T17:13:59.756Z,25.56
2023-05-06T17:16:01.432Z,25.50
2023-05-06T17:18:03.265Z,25.42
2023-05-06T17:20:05.908Z,25.43
2023-05-06T17:22:07.483Z,25.44
2023-05-06T17:24:09.529Z,25.45
2023-05-06T17:26:11.368Z,25.44
2023-05-06T17:28:15.185Z,25.42
2023-05-06T17:30:17.971Z,25.42
2023-05-06T17:32:19.875Z,25.41
2023-05-06T17:36:28.295Z,25.38
2023-05-06T17:38:29.897Z,25.32
2023-05-06T17:40:31.676Z,25.32
2023-05-06T17:42:33.369Z,25.35
2023-05-06T17:44:36.584Z,25.36
2023-05-06T17:46:38.366Z,25.39
2023-05-06T17:48:40.631Z,25.41
2023-05-06T17:50:42.375Z,25.37
2023-05-06T17:52:44.401Z,25.32
2023-05-06T17:54:57.137Z,25.29
2023-05-06T17:57:07.645Z,25.16
2023-05-06T17:59:09.264Z,25.13
2023-05-06T18:01:13.228Z,25.11
2023-05-06T18:03:15.106Z,25.09
2023-05-06T18:05:16.940Z,25.06
2023-05-06T18:07:18.552Z,25.03
2023-05-06T18:09:20.480Z,25.04
2023-05-06T18:11:22.164Z,25.02
2023-05-06T18:13:23.845Z,25.00
2023-05-06T18:15:25.947Z,25.03
2023-05-06T18:17:28.968Z,25.05
2023-05-06T18:19:31.670Z,25.04
2023-05-06T18:21:33.445Z,25.02
2023-05-06T18:23:35.469Z,24.99
2023-05-06T18:25:37.063Z,24.98
2023-05-06T18:27:39.450Z,24.95
2023-05-06T18:29:41.119Z,24.88
2023-05-06T18:31:45.958Z,24.84
2023-05-06T18:33:49.213Z,24.79
2023-05-06T18:35:52.873Z,24.96
2023-05-06T18:37:59.734Z,24.98
2023-05-06T18:40:01.633Z,24.96
2023-05-06T18:42:03.770Z,24.95
2023-05-06T18:44:05.670Z,24.84
2023-05-06T18:46:07.331Z,24.74
2023-05-06T18:48:09.519Z,24.75
2023-05-06T18:50:12.580Z,24.65
2023-05-06T18:52:14.718Z,24.63
2023-05-06T18:54:16.380Z,24.64
2023-05-06T18:56:17.999Z,24.62
2023-05-06T18:58:23.265Z,24.54
2023-05-06T19:00:26.606Z,24.46
2023-05-06T19:02:29.010Z,24.38
2023-05-06T19:04:32.044Z,24.33
2023-05-06T19:06:35.136Z,24.29
2023-05-06T19:08:37.533Z,24.21
2023-05-06T19:10:39.170Z,24.21
2023-05-06T19:12:40.995Z,24.26
2023-05-06T19:14:42.563Z,24.24
2023-05-06T19:16:44.264Z,24.16
2023-05-06T19:18:45.881Z,24.12
2023-05-06T19:20:47.492Z,24.13
2023-05-06T19:22:50.717Z,24.08
2023-05-06T19:24:52.544Z,24.10
2023-05-06T19:26:54.121Z,24.05
2023-05-06T19:28:56.077Z,24.08
2023-05-06T19:30:57.750Z,24.00
2023-05-06T19:33:00.130Z,23.93
2023-05-06T19:35:04.602Z,24.01
2023-05-06T19:37:06.188Z,23.98
2023-05-06T19:39:09.598Z,23.97
2023-05-06T19:41:11.636Z,23.96
2023-05-06T19:43:13.524Z,23.94
2023-05-06T19:45:18.933Z,23.95
2023-05-06T19:47:21.138Z,23.91
2023-05-06T19:49:23.209Z,23.87
2023-05-06T19:51:24.787Z,23.88
2023-05-06T19:53:26.470Z,23.88
2023-05-06T19:55:30.422Z,23.85
2023-05-06T19:57:32.298Z,23.84
2023-05-06T19:59:36.286Z,23.81
2023-05-06T20:01:38.022Z,23.78
2023-05-06T20:03:39.835Z,23.78
2023-05-06T20:05:43.065Z,23.80
2023-05-06T20:07:44.772Z,23.72
2023-05-06T20:09:46.365Z,23.68
2023-05-06T20:11:49.399Z,23.66
2023-05-06T20:13:55.450Z,23.68
2023-05-06T20:15:57.211Z,23.67
2023-05-06T20:17:58.974Z,23.70
2023-05-06T20:20:02.573Z,23.61
2023-05-06T20:22:07.390Z,23.62
2023-05-06T20:24:09.382Z,23.60
2023-05-06T20:26:11.058Z,23.60
2023-05-06T20:28:16.364Z,23.57
2023-05-06T20:30:18.105Z,23.55
2023-05-06T20:32:19.836Z,23.51
2023-05-06T20:34:21.444Z,23.49
2023-05-06T20:36:25.900Z,23.50
2023-05-06T20:38:28.110Z,23.52
2023-05-06T20:40:30.603Z,23.45
2023-05-06T20:42:32.693Z,23.40
2023-05-06T20:44:37.656Z,23.37
2023-05-06T20:46:39.270Z,23.33
2023-05-06T20:48:40.959Z,23.25
2023-05-06T20:50:42.590Z,23.20
2023-05-06T20:52:45.289Z,23.17
2023-05-06T20:54:47.601Z,23.11
2023-05-06T20:56:49.285Z,23.06
2023-05-06T20:58:51.802Z,23.05
2023-05-06T21:00:54.815Z,23.02
2023-05-06T21:02:56.806Z,23.01
2023-05-06T21:05:03.033Z,22.96
2023-05-06T21:07:05.937Z,22.88
2023-05-06T21:09:07.609Z,22.86
2023-05-06T21:11:09.298Z,22.86
2023-05-06T21:13:11.368Z,22.84
2023-05-06T21:15:13.233Z,22.81
2023-05-06T21:17:16.529Z,22.76
2023-05-06T21:19:19.838Z,22.75
2023-05-06T21:21:24.097Z,22.72
2023-05-06T21:23:32.720Z,22.71
2023-05-06T21:25:34.327Z,22.70
2023-05-06T21:27:36.434Z,22.66
2023-05-06T21:29:38.113Z,22.61
2023-05-06T21:31:40.149Z,22.56
2023-05-06T21:33:43.657Z,22.55
2023-05-06T21:35:45.243Z,22.49
2023-05-06T21:37:46.863Z,22.49
2023-05-06T21:39:48.426Z,22.53
2023-05-06T21:41:50.241Z,22.52
2023-05-06T21:43:55.786Z,22.43
2023-05-06T21:45:57.681Z,22.43
2023-05-06T21:47:59.826Z,22.43
2023-05-06T21:50:02.944Z,22.43
2023-05-06T21:52:05.928Z,22.40
2023-05-06T21:54:07.662Z,22.33
2023-05-06T21:56:09.257Z,22.26
2023-05-06T21:58:11.237Z,22.19
2023-05-06T22:00:14.854Z,22.02
2023-05-06T22:02:16.553Z,21.86
2023-05-06T22:04:18.233Z,21.75
2023-05-06T22:06:22.468Z,21.68
2023-05-06T22:08:24.306Z,21.67
2023-05-06T22:10:25.913Z,21.61
2023-05-06T22:12:27.605Z,21.64
2023-05-06T22:14:37.389Z,21.66
2023-05-06T22:16:43.704Z,21.68
2023-05-06T22:18:45.495Z,21.64
2023-05-06T22:20:47.244Z,21.52
2023-05-06T22:22:51.781Z,21.51
2023-05-06T22:24:53.766Z,21.56
2023-05-06T22:26:55.919Z,21.56
2023-05-06T22:28:57.649Z,21.47
2023-05-06T22:30:59.535Z,21.46
2023-05-06T22:33:01.475Z,21.46
2023-05-06T22:35:03.310Z,21.43
2023-05-06T22:37:09.046Z,21.48
2023-05-06T22:39:12.264Z,21.48
2023-05-06T22:41:14.289Z,21.50
2023-05-06T22:43:16.442Z,21.51
2023-05-06T22:45:18.409Z,21.45
2023-05-06T22:47:20.342Z,21.47
2023-05-06T22:49:22.541Z,21.46
2023-05-06T22:51:24.139Z,21.38
2023-05-06T22:53:26.702Z,21.36
2023-05-06T22:55:39.465Z,21.32
2023-05-06T22:57:41.166Z,21.33
2023-05-06T22:59:43.326Z,21.32
2023-05-06T23:01:45.497Z,21.32
2023-05-06T23:03:47.291Z,21.30
2023-05-06T23:05:49.808Z,21.30
2023-05-06T23:07:51.609Z,21.36
2023-05-06T23:09:53.326Z,21.34
2023-05-06T23:11:56.653Z,21.38
2023-05-06T23:13:58.329Z,21.36
2023-05-06T23:16:00.058Z,21.33
2023-05-06T23:18:01.779Z,21.32
2023-05-06T23:20:03.987Z,21.35
2023-05-06T23:22:05.562Z,21.32
2023-05-06T23:24:08.572Z,21.29
2023-05-06T23:26:10.215Z,21.32
2023-05-06T23:28:14.461Z,21.28
2023-05-06T23:30:17.556Z,21.36
2023-05-06T23:32:21.731Z,21.39
2023-05-06T23:34:23.468Z,21.35
2023-05-06T23:36:26.142Z,21.37
2023-05-06T23:38:28.075Z,21.41
2023-05-06T23:40:29.852Z,21.41
2023-05-06T23:42:31.600Z,21.40
2023-05-06T23:44:35.016Z,21.33
2023-05-06T23:46:36.781Z,21.27
2023-05-06T23:48:38.898Z,21.27
2023-05-06T23:50:40.805Z,21.25
2023-05-06T23:52:42.430Z,21.25
2023-05-06T23:54:44.033Z,21.29
2023-05-06T23:56:45.647Z,21.29
2023-05-06T23:58:48.373Z,21.31
